Time;durP1;ratioP1;P1;durP2;ratioP2;P2;SDS_P1;SDS_P2;PMS_P1;PMS_P2;Temp;Humidity;BMP_temperature;BMP_pressure;BME280_temperature;BME280_humidity;BME280_pressure;Samples;Min_cycle;Max_cycle;Signal;HPM_P1;HPM_P2
2022/10/27 00:08:27;;;;;;;1.00;0.60;;;;;;;17.59;100.00;101796.22;20803979;28;20132;-77
2022/10/27 00:18:29;;;;;;;1.15;0.60;;;;;;;17.58;100.00;101811.53;20802007;28;20521;-77
2022/10/27 00:28:31;;;;;;;0.50;0.47;;;;;;;17.48;100.00;101800.56;20800380;28;20048;-77
2022/10/27 00:38:33;;;;;;;0.60;0.60;;;;;;;17.47;100.00;101814.16;20783319;28;20045;-76
2022/10/27 00:48:35;;;;;;;0.75;0.60;;;;;;;17.38;100.00;101802.22;20782999;28;20051;-77
2022/10/27 00:58:37;;;;;;;0.90;0.52;;;;;;;17.40;100.00;101821.81;20800685;28;20125;-76
2022/10/27 01:08:39;;;;;;;0.60;0.57;;;;;;;17.48;100.00;101832.03;20764563;28;1052128;-76
2022/10/27 01:19:06;;;;;;;0.57;0.57;;;;;;;17.57;100.00;101862.78;20801420;28;20069;-76
2022/10/27 01:29:42;;;;;;;0.60;0.60;;;;;;;17.57;100.00;101865.50;20800800;28;20183;-76
2022/10/27 01:39:57;;;;;;;1.23;0.82;;;;;;;17.56;100.00;101877.22;20798722;28;20052;-76
2022/10/27 01:49:59;;;;;;;0.63;0.63;;;;;;;17.04;100.00;101791.16;20799067;28;20049;-76
2022/10/27 02:00:06;;;;;;;0.40;0.38;;;;;;;17.54;100.00;101880.91;20799454;28;20069;-77
2022/10/27 02:10:56;;;;;;;1.70;1.25;;;;;;;17.46;100.00;101875.19;20796360;28;20049;-76
2022/10/27 02:21:04;;;;;;;0.88;0.60;;;;;;;17.36;100.00;101875.00;20786587;28;20132;-76
2022/10/27 02:31:07;;;;;;;1.15;0.60;;;;;;;17.56;100.00;101888.00;20717944;28;20414;-76
2022/10/27 02:41:08;;;;;;;1.10;0.60;;;;;;;17.54;100.00;101878.19;20715169;28;20061;-76
2022/10/27 02:51:10;;;;;;;0.65;0.50;;;;;;;17.34;100.00;101839.25;20720952;28;20049;-76
2022/10/27 03:01:12;;;;;;;0.70;0.65;;;;;;;17.35;100.00;101842.81;20796167;28;20049;-76
2022/10/27 03:11:13;;;;;;;0.50;0.50;;;;;;;17.54;100.00;101871.97;20795253;28;20456;-76
2022/10/27 03:21:15;;;;;;;0.75;0.52;;;;;;;17.54;100.00;101874.66;20794173;28;20072;-76
2022/10/27 03:31:16;;;;;;;0.93;0.60;;;;;;;17.54;100.00;101864.75;20793529;28;20053;-76
2022/10/27 03:41:18;;;;;;;0.95;0.50;;;;;;;17.44;100.00;101855.59;20793829;28;20053;-77
2022/10/27 03:51:19;;;;;;;0.63;0.50;;;;;;;17.23;100.00;101823.91;20792250;28;20057;-76
2022/10/27 04:01:21;;;;;;;0.45;0.45;;;;;;;17.43;100.00;101856.59;20800772;28;20498;-77
2022/10/27 04:11:22;;;;;;;0.95;0.70;;;;;;;17.29;100.00;101837.88;20807989;28;20063;-76
2022/10/27 04:21:24;;;;;;;0.88;0.57;;;;;;;17.52;100.00;101877.44;20805328;28;20047;-76
2022/10/27 04:31:25;;;;;;;0.45;0.45;;;;;;;17.52;100.00;101885.53;20804313;28;20506;-76
2022/10/27 04:41:27;;;;;;;0.90;0.43;;;;;;;17.44;100.00;101876.28;20804207;28;20548;-76
2022/10/27 04:51:28;;;;;;;0.40;0.40;;;;;;;17.37;100.00;101857.88;20809105;28;20076;-76
2022/10/27 05:01:29;;;;;;;1.17;0.40;;;;;;;17.42;100.00;101868.31;20818399;28;20549;-76
2022/10/27 05:11:31;;;;;;;0.60;0.40;;;;;;;17.51;100.00;101882.97;20789469;28;20057;-77
2022/10/27 05:21:33;;;;;;;2.13;0.90;;;;;;;17.54;100.00;101874.66;20781689;28;20133;-77
2022/10/27 05:31:34;;;;;;;1.85;0.82;;;;;;;17.64;100.00;101888.31;20693225;28;20054;-77
2022/10/27 05:41:35;;;;;;;2.17;0.90;;;;;;;17.70;100.00;101874.44;20769256;28;20056;-78
2022/10/27 05:51:37;;;;;;;1.98;1.13;;;;;;;17.67;100.00;101855.75;20716892;28;20057;-75
2022/10/27 06:01:38;;;;;;;3.65;0.90;;;;;;;17.78;100.00;101865.75;20715904;28;20053;-75
2022/10/27 06:11:40;;;;;;;2.72;0.85;;;;;;;17.74;100.00;101854.38;20786371;28;20065;-74
2022/10/27 06:21:41;;;;;;;1.63;0.90;;;;;;;17.82;100.00;101869.94;20794413;28;20514;-74
2022/10/27 06:31:43;;;;;;;3.15;1.08;;;;;;;17.83;100.00;101867.16;20764679;28;20498;-74
2022/10/27 06:41:44;;;;;;;1.35;0.80;;;;;;;17.86;100.00;101878.69;20751469;28;20045;-75
2022/10/27 06:51:54;;;;;;;1.90;1.02;;;;;;;17.86;100.00;101878.69;20754081;28;20045;-75
2022/10/27 07:01:55;;;;;;;1.92;0.70;;;;;;;17.88;100.00;101882.13;20767980;28;20128;-74
2022/10/27 07:11:57;;;;;;;1.08;0.80;;;;;;;17.88;100.00;101882.13;20787973;28;20081;-74
2022/10/27 07:21:58;;;;;;;1.50;0.75;;;;;;;17.61;100.00;101840.06;20783863;28;20137;-75
2022/10/27 07:32:00;;;;;;;1.55;0.80;;;;;;;17.87;100.00;101875.84;20792096;28;20054;-75
2022/10/27 07:42:01;;;;;;;0.60;0.60;;;;;;;17.88;100.00;101882.97;20800802;28;20057;-75
2022/10/27 07:52:04;;;;;;;1.00;0.90;;;;;;;17.87;100.00;101861.53;20779797;28;20046;-74
2022/10/27 08:02:10;;;;;;;1.80;1.00;;;;;;;17.92;100.00;101862.06;20775442;28;20053;-75
2022/10/27 08:12:11;;;;;;;2.00;0.80;;;;;;;17.94;100.00;101873.59;20797804;28;20072;-74
2022/10/27 08:22:13;;;;;;;4.38;1.27;;;;;;;17.96;100.00;101871.63;20777675;28;20548;-75
2022/10/27 08:32:15;;;;;;;1.70;1.10;;;;;;;17.63;100.00;101821.97;20771626;28;20049;-75
2022/10/27 08:42:34;;;;;;;7.57;1.33;;;;;;;17.86;100.00;101851.75;20771240;28;20049;-75
2022/10/27 08:52:55;;;;;;;8.73;1.73;;;;;;;17.95;100.00;101857.31;20786665;28;20053;-75
2022/10/27 09:03:22;;;;;;;4.78;1.40;;;;;;;18.00;100.00;101865.03;20785768;28;20383;-75
2022/10/27 09:13:39;;;;;;;4.53;1.50;;;;;;;18.01;100.00;101866.81;20790634;28;20080;-74
2022/10/27 09:23:46;;;;;;;4.43;1.50;;;;;;;17.96;100.00;101852.78;20797041;28;20049;-74
2022/10/27 09:33:56;;;;;;;3.15;1.30;;;;;;;17.99;100.00;101847.16;20787765;28;20045;-75
2022/10/27 09:43:59;;;;;;;3.60;1.20;;;;;;;18.00;100.00;101848.03;20777458;28;20049;-74
2022/10/27 09:54:02;;;;;;;3.03;1.40;;;;;;;17.98;100.00;101838.22;20796318;28;20045;-75
2022/10/27 10:04:20;;;;;;;2.05;1.20;;;;;;;17.98;100.00;101818.50;20789526;28;20099;-74
2022/10/27 10:14:23;;;;;;;2.10;1.10;;;;;;;17.98;100.00;101816.69;20787595;28;20119;-74
2022/10/27 10:24:27;;;;;;;2.47;1.10;;;;;;;17.98;100.00;101810.41;20777556;28;20077;-74
2022/10/27 10:34:30;;;;;;;3.78;1.27;;;;;;;17.82;100.00;101773.84;20753440;28;20068;-74
2022/10/27 10:44:32;;;;;;;3.13;1.10;;;;;;;17.99;100.00;101782.50;20782599;28;20413;-75
2022/10/27 10:54:35;;;;;;;2.15;0.93;;;;;;;17.92;100.00;101770.47;20786762;28;20524;-74
2022/10/27 11:04:43;;;;;;;5.72;1.20;;;;;;;17.91;100.00;101769.63;20793178;28;20140;-75
2022/10/27 11:14:47;;;;;;;2.13;1.17;;;;;;;17.97;100.00;101774.53;20827250;28;20437;-74
2022/10/27 11:24:59;;;;;;;2.63;1.27;;;;;;;17.85;100.00;101740.44;20802855;28;20053;-74
2022/10/27 11:35:03;;;;;;;3.38;1.05;;;;;;;17.97;100.00;101747.59;20785239;28;20045;-74
2022/10/27 11:45:25;;;;;;;1.23;0.80;;;;;;;17.96;100.00;101726.16;20698784;28;20136;-74
2022/10/27 11:55:38;;;;;;;2.05;0.90;;;;;;;17.80;100.00;101681.53;20698508;28;20769;-74
2022/10/27 12:05:58;;;;;;;1.67;0.93;;;;;;;17.91;100.00;101701.41;20724358;28;20405;-75
2022/10/27 12:16:12;;;;;;;1.25;0.85;;;;;;;17.67;100.00;101661.88;20751575;28;20072;-74
2022/10/27 12:26:23;;;;;;;5.13;2.25;;;;;;;17.96;100.00;101702.78;20755079;28;20068;-75
2022/10/27 12:36:34;;;;;;;4.07;1.30;;;;;;;18.00;100.00;101687.22;20777469;28;20129;-75
2022/10/27 12:46:53;;;;;;;2.58;1.15;;;;;;;18.01;100.00;101662.03;20798025;28;20051;-74
2022/10/27 12:57:22;;;;;;;4.78;1.17;;;;;;;18.02;100.00;101652.97;20800323;28;20131;-75
2022/10/27 13:07:41;;;;;;;2.17;0.90;;;;;;;18.03;100.00;101621.50;20773636;28;20503;-75
2022/10/27 13:18:20;;;;;;;4.57;1.50;;;;;;;18.04;100.00;101613.28;20799024;28;20095;-75
2022/10/27 13:28:29;;;;;;;1.35;0.93;;;;;;;18.04;100.00;101607.91;20759952;28;20461;-74
2022/10/27 13:38:31;;;;;;;1.90;0.82;;;;;;;18.03;100.00;101603.50;20785923;28;20046;-75
2022/10/27 13:48:33;;;;;;;1.42;0.90;;;;;;;17.91;100.00;101575.66;20769728;28;20179;-74
2022/10/27 13:58:56;;;;;;;1.92;0.82;;;;;;;18.04;100.00;101610.59;20749330;28;20068;-74
2022/10/27 14:09:17;;;;;;;1.77;1.10;;;;;;;18.03;100.00;101599.97;20773634;28;20547;-74
2022/10/27 14:19:28;;;;;;;1.10;1.00;;;;;;;17.96;100.00;101575.28;20673175;28;20406;-74
2022/10/27 14:29:30;;;;;;;1.67;0.98;;;;;;;18.01;100.00;101575.81;20673332;28;20044;-75
2022/10/27 14:39:36;;;;;;;1.67;0.75;;;;;;;17.97;100.00;101548.25;20697136;28;20045;-75
2022/10/27 14:49:42;;;;;;;1.13;0.70;;;;;;;17.89;100.00;101517.50;20708580;28;20053;-74
2022/10/27 14:59:44;;;;;;;1.45;0.70;;;;;;;17.92;100.00;101522.63;20760038;28;20387;-74
2022/10/27 15:09:49;;;;;;;2.08;0.90;;;;;;;17.91;100.00;101510.16;20779612;28;20644;-75
2022/10/27 15:19:58;;;;;;;2.08;0.88;;;;;;;17.89;100.00;101496.78;20789588;28;20156;-75
2022/10/27 15:30:00;;;;;;;3.38;0.70;;;;;;;17.88;100.00;101486.16;20775971;28;20502;-74
2022/10/27 15:40:20;;;;;;;0.80;0.70;;;;;;;17.88;100.00;101483.47;20768455;28;20132;-74
2022/10/27 15:50:24;;;;;;;1.30;0.60;;;;;;;17.85;100.00;101481.00;20761180;28;20050;-75
2022/10/27 16:00:27;;;;;;;1.27;0.70;;;;;;;17.85;100.00;101484.53;20765143;28;20053;-75
2022/10/27 16:10:28;;;;;;;0.70;0.55;;;;;;;17.84;100.00;101493.59;20742778;28;20053;-75
2022/10/27 16:20:35;;;;;;;1.38;0.70;;;;;;;17.83;100.00;101499.97;20759731;28;20057;-75
2022/10/27 16:30:37;;;;;;;1.80;0.70;;;;;;;17.82;100.00;101501.81;20767424;28;20072;-74
2022/10/27 16:40:39;;;;;;;1.00;0.60;;;;;;;17.82;100.00;101515.28;20751663;28;20116;-75
2022/10/27 16:50:47;;;;;;;1.92;0.75;;;;;;;17.82;100.00;101517.97;20750686;28;20061;-74
2022/10/27 17:00:49;;;;;;;0.70;0.50;;;;;;;17.81;100.00;101510.88;20751054;28;20041;-74
2022/10/27 17:10:50;;;;;;;1.10;0.60;;;;;;;17.80;100.00;101517.25;20762515;28;20081;-74
2022/10/27 17:20:55;;;;;;;1.17;0.52;;;;;;;17.71;100.00;101507.22;20774563;28;20081;-74
2022/10/27 17:31:02;;;;;;;1.25;0.60;;;;;;;17.71;100.00;101488.34;20762508;28;20064;-75
2022/10/27 17:41:06;;;;;;;0.63;0.50;;;;;;;17.78;100.00;101511.13;20767085;28;20619;-75
2022/10/27 17:51:13;;;;;;;0.60;0.60;;;;;;;17.78;100.00;101516.50;20767016;28;20065;-75
2022/10/27 18:01:23;;;;;;;0.50;0.40;;;;;;;17.77;100.00;101522.00;20760047;28;20050;-75
2022/10/27 18:11:30;;;;;;;1.65;0.70;;;;;;;17.72;100.00;101514.31;20764103;28;20057;-75
2022/10/27 18:21:33;;;;;;;0.50;0.43;;;;;;;17.39;100.00;101465.63;20788214;28;20053;-75
2022/10/27 18:31:36;;;;;;;1.35;0.60;;;;;;;17.77;100.00;101524.69;20797847;28;20164;-75
2022/10/27 18:41:38;;;;;;;0.73;0.50;;;;;;;17.76;100.00;101517.59;20754621;28;20087;-75
2022/10/27 18:51:39;;;;;;;0.50;0.50;;;;;;;17.75;100.00;101508.69;20758707;28;20251;-76
2022/10/27 19:01:42;;;;;;;0.57;0.50;;;;;;;17.52;100.00;101470.94;20766248;28;20140;-75
2022/10/27 19:11:44;;;;;;;0.82;0.65;;;;;;;17.75;100.00;101514.06;20872194;28;20110;-75
2022/10/27 19:21:45;;;;;;;0.60;0.60;;;;;;;17.74;100.00;101504.28;20877319;28;20448;-75
2022/10/27 19:31:47;;;;;;;0.80;0.60;;;;;;;17.74;100.00;101504.28;20886918;28;20057;-75
2022/10/27 19:41:48;;;;;;;1.08;0.55;;;;;;;17.74;100.00;101515.03;20893595;28;20076;-76
2022/10/27 19:51:50;;;;;;;1.40;0.50;;;;;;;17.74;100.00;101512.34;20892446;28;20445;-76
2022/10/27 20:01:52;;;;;;;0.63;0.45;;;;;;;17.36;100.00;101452.44;20819210;28;20061;-76
2022/10/27 20:11:54;;;;;;;0.57;0.50;;;;;;;17.72;100.00;101519.69;20806819;28;20057;-75
2022/10/27 20:21:56;;;;;;;0.77;0.60;;;;;;;17.73;100.00;101518.72;20807219;28;20045;-75
2022/10/27 20:31:57;;;;;;;0.50;0.50;;;;;;;17.73;100.00;101534.88;20805972;28;20049;-75
2022/10/27 20:41:59;;;;;;;1.85;0.70;;;;;;;17.72;100.00;101538.53;20805664;28;20557;-80
2022/10/27 20:52:00;;;;;;;0.73;0.60;;;;;;;17.45;100.00;101499.31;20787509;28;20053;-75
2022/10/27 21:02:02;;;;;;;1.02;0.65;;;;;;;17.72;100.00;101538.53;20803780;28;20410;-75
2022/10/27 21:12:04;;;;;;;0.95;0.60;;;;;;;17.71;100.00;101526.06;20802994;28;20073;-76
2022/10/27 21:22:05;;;;;;;0.57;0.57;;;;;;;17.46;100.00;101490.25;20785074;28;20132;-75
2022/10/27 21:32:06;;;;;;;1.00;0.50;;;;;;;17.72;100.00;101538.53;20802031;28;20488;-75
2022/10/27 21:42:09;;;;;;;0.80;0.57;;;;;;;17.71;100.00;101538.66;20799129;28;20077;-75
2022/10/27 21:52:10;;;;;;;1.08;0.60;;;;;;;17.71;100.00;101558.38;20798092;28;20536;-75
2022/10/27 22:02:12;;;;;;;0.65;0.60;;;;;;;17.71;100.00;101579.03;20781299;28;20049;-76
2022/10/27 22:12:13;;;;;;;0.93;0.50;;;;;;;17.71;100.00;101574.53;20798761;28;20057;-76
2022/10/27 22:22:15;;;;;;;1.02;0.73;;;;;;;17.61;100.00;101539.38;20798401;28;20057;-76
2022/10/27 22:32:16;;;;;;;0.75;0.50;;;;;;;17.71;100.00;101558.38;20797273;28;20208;-76
2022/10/27 22:42:18;;;;;;;0.40;0.40;;;;;;;17.71;100.00;101562.88;20797308;28;20056;-75
2022/10/27 22:52:19;;;;;;;1.45;0.63;;;;;;;17.62;100.00;101526.75;20796092;28;20524;-75
2022/10/27 23:02:21;;;;;;;1.67;0.68;;;;;;;17.55;100.00;101494.09;20795392;28;20100;-75
2022/10/27 23:12:22;;;;;;;0.80;0.57;;;;;;;17.71;100.00;101517.09;20793233;28;20102;-75
2022/10/27 23:22:24;;;;;;;0.93;0.65;;;;;;;17.70;100.00;101513.56;20776688;28;20566;-75
2022/10/27 23:32:25;;;;;;;1.05;0.70;;;;;;;17.56;100.00;101478.78;20795367;28;20053;-75
2022/10/27 23:42:27;;;;;;;0.85;0.70;;;;;;;17.69;100.00;101512.69;20793998;28;20151;-75
2022/10/27 23:52:29;;;;;;;0.75;0.60;;;;;;;17.69;100.00;101511.84;20793140;28;20128;-76
